sensor_id;sensor_type;location;lat;lon;timestamp;temperature;humidity
16976;DHT22;8604;48.148;-1.786;2024-01-15T00:02:38;3.90;99.90
16976;DHT22;8604;48.148;-1.786;2024-01-15T00:05:07;3.90;99.90
16976;DHT22;8604;48.148;-1.786;2024-01-15T00:07:35;3.90;99.90
16976;DHT22;8604;48.148;-1.786;2024-01-15T00:10:04;3.90;99.90
16976;DHT22;8604;48.148;-1.786;2024-01-15T00:12:32;3.90;99.90
16976;DHT22;8604;48.148;-1.786;2024-01-15T00:15:01;3.90;99.90
16976;DHT22;8604;48.148;-1.786;2024-01-15T00:17:29;3.90;99.90
16976;DHT22;8604;48.148;-1.786;2024-01-15T00:19:59;3.90;99.90
16976;DHT22;8604;48.148;-1.786;2024-01-15T00:22:28;3.90;99.90
16976;DHT22;8604;48.148;-1.786;2024-01-15T00:24:56;4.00;99.90
16976;DHT22;8604;48.148;-1.786;2024-01-15T00:27:24;3.90;99.90
16976;DHT22;8604;48.148;-1.786;2024-01-15T00:29:53;4.00;99.90
16976;DHT22;8604;48.148;-1.786;2024-01-15T00:32:21;3.90;99.90
16976;DHT22;8604;48.148;-1.786;2024-01-15T00:34:50;3.90;99.90
16976;DHT22;8604;48.148;-1.786;2024-01-15T00:37:20;3.90;99.90
16976;DHT22;8604;48.148;-1.786;2024-01-15T00:39:48;3.90;99.90
16976;DHT22;8604;48.148;-1.786;2024-01-15T00:42:17;3.90;99.90
16976;DHT22;8604;48.148;-1.786;2024-01-15T00:44:45;3.90;99.90
16976;DHT22;8604;48.148;-1.786;2024-01-15T00:47:13;3.90;99.90
16976;DHT22;8604;48.148;-1.786;2024-01-15T00:49:42;3.90;99.90
16976;DHT22;8604;48.148;-1.786;2024-01-15T00:52:10;3.90;99.90
16976;DHT22;8604;48.148;-1.786;2024-01-15T00:54:38;4.00;99.90
16976;DHT22;8604;48.148;-1.786;2024-01-15T00:57:07;4.00;99.90
16976;DHT22;8604;48.148;-1.786;2024-01-15T00:59:35;4.00;99.90
16976;DHT22;8604;48.148;-1.786;2024-01-15T01:02:04;3.90;99.90
16976;DHT22;8604;48.148;-1.786;2024-01-15T01:04:32;3.90;99.90
16976;DHT22;8604;48.148;-1.786;2024-01-15T01:07:01;3.90;99.90
16976;DHT22;8604;48.148;-1.786;2024-01-15T01:09:29;3.90;99.90
16976;DHT22;8604;48.148;-1.786;2024-01-15T01:12:01;4.00;99.90
16976;DHT22;8604;48.148;-1.786;2024-01-15T01:14:30;3.90;99.90
16976;DHT22;8604;48.148;-1.786;2024-01-15T01:17:00;3.90;99.90
16976;DHT22;8604;48.148;-1.786;2024-01-15T01:19:28;3.90;99.90
16976;DHT22;8604;48.148;-1.786;2024-01-15T01:21:57;4.00;99.90
16976;DHT22;8604;48.148;-1.786;2024-01-15T01:24:26;3.90;99.90
16976;DHT22;8604;48.148;-1.786;2024-01-15T01:26:54;3.90;99.90
16976;DHT22;8604;48.148;-1.786;2024-01-15T01:29:23;3.90;99.90
16976;DHT22;8604;48.148;-1.786;2024-01-15T01:31:53;3.90;99.90
16976;DHT22;8604;48.148;-1.786;2024-01-15T01:34:21;3.90;99.90
16976;DHT22;8604;48.148;-1.786;2024-01-15T01:36:50;3.90;99.90
16976;DHT22;8604;48.148;-1.786;2024-01-15T01:39:18;3.90;99.90
16976;DHT22;8604;48.148;-1.786;2024-01-15T01:41:47;3.90;99.90
16976;DHT22;8604;48.148;-1.786;2024-01-15T01:44:15;3.90;99.90
16976;DHT22;8604;48.148;-1.786;2024-01-15T01:46:45;3.90;99.90
16976;DHT22;8604;48.148;-1.786;2024-01-15T01:49:14;3.90;99.90
16976;DHT22;8604;48.148;-1.786;2024-01-15T01:51:42;3.90;99.90
16976;DHT22;8604;48.148;-1.786;2024-01-15T01:54:11;4.00;99.90
16976;DHT22;8604;48.148;-1.786;2024-01-15T01:56:41;4.00;99.90
16976;DHT22;8604;48.148;-1.786;2024-01-15T01:59:10;4.00;99.90
16976;DHT22;8604;48.148;-1.786;2024-01-15T02:01:39;4.00;99.90
16976;DHT22;8604;48.148;-1.786;2024-01-15T02:04:10;4.00;99.90
16976;DHT22;8604;48.148;-1.786;2024-01-15T02:06:39;3.90;99.90
16976;DHT22;8604;48.148;-1.786;2024-01-15T02:09:08;3.90;99.90
16976;DHT22;8604;48.148;-1.786;2024-01-15T02:11:36;3.90;99.90
16976;DHT22;8604;48.148;-1.786;2024-01-15T02:14:05;4.00;99.90
16976;DHT22;8604;48.148;-1.786;2024-01-15T02:16:33;4.00;99.90
16976;DHT22;8604;48.148;-1.786;2024-01-15T02:19:01;4.00;99.90
16976;DHT22;8604;48.148;-1.786;2024-01-15T02:21:31;4.00;99.90
16976;DHT22;8604;48.148;-1.786;2024-01-15T02:24:03;4.00;99.90
16976;DHT22;8604;48.148;-1.786;2024-01-15T02:26:31;4.00;99.90
16976;DHT22;8604;48.148;-1.786;2024-01-15T02:29:03;4.00;99.90
16976;DHT22;8604;48.148;-1.786;2024-01-15T02:31:31;4.00;99.90
16976;DHT22;8604;48.148;-1.786;2024-01-15T02:34:00;4.00;99.90
16976;DHT22;8604;48.148;-1.786;2024-01-15T02:36:28;4.00;99.90
16976;DHT22;8604;48.148;-1.786;2024-01-15T02:38:57;4.00;99.90
16976;DHT22;8604;48.148;-1.786;2024-01-15T02:41:26;4.00;99.90
16976;DHT22;8604;48.148;-1.786;2024-01-15T02:43:55;4.00;99.90
16976;DHT22;8604;48.148;-1.786;2024-01-15T02:46:23;4.00;99.90
16976;DHT22;8604;48.148;-1.786;2024-01-15T02:48:51;4.00;99.90
16976;DHT22;8604;48.148;-1.786;2024-01-15T02:51:20;4.00;99.90
16976;DHT22;8604;48.148;-1.786;2024-01-15T02:53:49;4.00;99.90
16976;DHT22;8604;48.148;-1.786;2024-01-15T02:56:18;4.00;99.90
16976;DHT22;8604;48.148;-1.786;2024-01-15T02:58:47;4.00;99.90
16976;DHT22;8604;48.148;-1.786;2024-01-15T03:01:18;4.00;99.90
16976;DHT22;8604;48.148;-1.786;2024-01-15T03:03:47;4.00;99.90
16976;DHT22;8604;48.148;-1.786;2024-01-15T03:06:15;4.00;99.90
16976;DHT22;8604;48.148;-1.786;2024-01-15T03:08:44;4.00;99.90
16976;DHT22;8604;48.148;-1.786;2024-01-15T03:11:12;4.00;99.90
16976;DHT22;8604;48.148;-1.786;2024-01-15T03:13:40;4.00;99.90
16976;DHT22;8604;48.148;-1.786;2024-01-15T03:16:10;4.00;99.90
16976;DHT22;8604;48.148;-1.786;2024-01-15T03:18:39;4.00;99.90
16976;DHT22;8604;48.148;-1.786;2024-01-15T03:21:07;4.00;99.90
16976;DHT22;8604;48.148;-1.786;2024-01-15T03:23:35;4.00;99.90
16976;DHT22;8604;48.148;-1.786;2024-01-15T03:26:04;4.00;99.90
16976;DHT22;8604;48.148;-1.786;2024-01-15T03:28:31;4.00;99.90
16976;DHT22;8604;48.148;-1.786;2024-01-15T03:30:59;4.00;99.90
16976;DHT22;8604;48.148;-1.786;2024-01-15T03:33:29;4.10;99.90
16976;DHT22;8604;48.148;-1.786;2024-01-15T03:35:58;4.00;99.90
16976;DHT22;8604;48.148;-1.786;2024-01-15T03:38:28;4.00;99.90
16976;DHT22;8604;48.148;-1.786;2024-01-15T03:40:56;4.10;99.90
16976;DHT22;8604;48.148;-1.786;2024-01-15T03:43:26;4.10;99.90
16976;DHT22;8604;48.148;-1.786;2024-01-15T03:45:55;4.10;99.90
16976;DHT22;8604;48.148;-1.786;2024-01-15T03:48:23;4.10;99.90
16976;DHT22;8604;48.148;-1.786;2024-01-15T03:50:53;4.10;99.90
16976;DHT22;8604;48.148;-1.786;2024-01-15T03:53:21;4.10;99.90
16976;DHT22;8604;48.148;-1.786;2024-01-15T03:55:50;4.10;99.90
16976;DHT22;8604;48.148;-1.786;2024-01-15T03:58:18;4.10;99.90
16976;DHT22;8604;48.148;-1.786;2024-01-15T04:00:47;4.10;99.90
16976;DHT22;8604;48.148;-1.786;2024-01-15T04:03:15;4.10;99.90
16976;DHT22;8604;48.148;-1.786;2024-01-15T04:05:44;4.10;99.90
16976;DHT22;8604;48.148;-1.786;2024-01-15T04:08:14;4.10;99.90
16976;DHT22;8604;48.148;-1.786;2024-01-15T04:10:42;4.10;99.90
16976;DHT22;8604;48.148;-1.786;2024-01-15T04:13:10;4.10;99.90
16976;DHT22;8604;48.148;-1.786;2024-01-15T04:15:39;4.10;99.90
16976;DHT22;8604;48.148;-1.786;2024-01-15T04:18:08;4.10;99.90
16976;DHT22;8604;48.148;-1.786;2024-01-15T04:20:36;4.10;99.90
16976;DHT22;8604;48.148;-1.786;2024-01-15T04:23:05;4.10;99.90
16976;DHT22;8604;48.148;-1.786;2024-01-15T04:25:35;4.10;99.90
16976;DHT22;8604;48.148;-1.786;2024-01-15T04:28:04;4.10;99.90
16976;DHT22;8604;48.148;-1.786;2024-01-15T04:30:32;4.10;99.90
16976;DHT22;8604;48.148;-1.786;2024-01-15T04:33:00;4.10;99.90
16976;DHT22;8604;48.148;-1.786;2024-01-15T04:35:29;4.10;99.90
16976;DHT22;8604;48.148;-1.786;2024-01-15T04:37:58;4.10;99.90
16976;DHT22;8604;48.148;-1.786;2024-01-15T04:40:26;4.00;99.90
16976;DHT22;8604;48.148;-1.786;2024-01-15T04:42:56;4.00;99.90
16976;DHT22;8604;48.148;-1.786;2024-01-15T04:45:24;4.10;99.90
16976;DHT22;8604;48.148;-1.786;2024-01-15T04:47:55;4.00;99.90
16976;DHT22;8604;48.148;-1.786;2024-01-15T04:50:25;4.10;99.90
16976;DHT22;8604;48.148;-1.786;2024-01-15T04:52:53;4.10;99.90
16976;DHT22;8604;48.148;-1.786;2024-01-15T04:55:21;4.10;99.90
16976;DHT22;8604;48.148;-1.786;2024-01-15T04:57:50;4.10;99.90
16976;DHT22;8604;48.148;-1.786;2024-01-15T05:00:19;4.00;99.90
16976;DHT22;8604;48.148;-1.786;2024-01-15T05:02:48;4.10;99.90
16976;DHT22;8604;48.148;-1.786;2024-01-15T05:05:16;4.10;99.90
16976;DHT22;8604;48.148;-1.786;2024-01-15T05:07:45;4.10;99.90
16976;DHT22;8604;48.148;-1.786;2024-01-15T05:10:13;4.00;99.90
16976;DHT22;8604;48.148;-1.786;2024-01-15T05:12:42;4.00;99.90
16976;DHT22;8604;48.148;-1.786;2024-01-15T05:15:10;4.00;99.90
16976;DHT22;8604;48.148;-1.786;2024-01-15T05:17:40;4.00;99.90
16976;DHT22;8604;48.148;-1.786;2024-01-15T05:20:09;4.00;99.90
16976;DHT22;8604;48.148;-1.786;2024-01-15T05:22:38;4.00;99.90
16976;DHT22;8604;48.148;-1.786;2024-01-15T05:25:06;4.00;99.90
16976;DHT22;8604;48.148;-1.786;2024-01-15T05:27:35;4.00;99.90
16976;DHT22;8604;48.148;-1.786;2024-01-15T05:30:04;4.10;99.90
16976;DHT22;8604;48.148;-1.786;2024-01-15T05:32:33;4.00;99.90
16976;DHT22;8604;48.148;-1.786;2024-01-15T05:35:04;4.00;99.90
16976;DHT22;8604;48.148;-1.786;2024-01-15T05:37:32;4.00;99.90
16976;DHT22;8604;48.148;-1.786;2024-01-15T05:40:00;4.00;99.90
16976;DHT22;8604;48.148;-1.786;2024-01-15T05:42:29;4.00;99.90
16976;DHT22;8604;48.148;-1.786;2024-01-15T05:44:59;4.00;99.90
16976;DHT22;8604;48.148;-1.786;2024-01-15T05:47:29;4.00;99.90
16976;DHT22;8604;48.148;-1.786;2024-01-15T05:49:58;4.00;99.90
16976;DHT22;8604;48.148;-1.786;2024-01-15T05:52:28;4.00;99.90
16976;DHT22;8604;48.148;-1.786;2024-01-15T05:54:56;4.00;99.90
16976;DHT22;8604;48.148;-1.786;2024-01-15T05:57:25;4.00;99.90
16976;DHT22;8604;48.148;-1.786;2024-01-15T05:59:53;4.00;99.90
16976;DHT22;8604;48.148;-1.786;2024-01-15T06:02:21;4.00;99.90
16976;DHT22;8604;48.148;-1.786;2024-01-15T06:04:50;4.00;99.90
16976;DHT22;8604;48.148;-1.786;2024-01-15T06:07:18;4.00;99.90
16976;DHT22;8604;48.148;-1.786;2024-01-15T06:09:48;4.00;99.90
16976;DHT22;8604;48.148;-1.786;2024-01-15T06:12:17;4.00;99.90
16976;DHT22;8604;48.148;-1.786;2024-01-15T06:14:46;4.00;99.90
16976;DHT22;8604;48.148;-1.786;2024-01-15T06:17:14;3.90;99.90
16976;DHT22;8604;48.148;-1.786;2024-01-15T06:19:43;4.00;99.90
16976;DHT22;8604;48.148;-1.786;2024-01-15T06:22:11;4.00;99.90
16976;DHT22;8604;48.148;-1.786;2024-01-15T06:24:39;4.00;99.90
16976;DHT22;8604;48.148;-1.786;2024-01-15T06:27:09;4.00;99.90
16976;DHT22;8604;48.148;-1.786;2024-01-15T06:29:38;4.00;99.90
16976;DHT22;8604;48.148;-1.786;2024-01-15T06:32:07;4.00;99.90
16976;DHT22;8604;48.148;-1.786;2024-01-15T06:34:35;4.00;99.90
16976;DHT22;8604;48.148;-1.786;2024-01-15T06:37:03;4.00;99.90
16976;DHT22;8604;48.148;-1.786;2024-01-15T06:39:32;4.00;99.90
16976;DHT22;8604;48.148;-1.786;2024-01-15T06:42:00;4.00;99.90
16976;DHT22;8604;48.148;-1.786;2024-01-15T06:44:30;4.00;99.90
16976;DHT22;8604;48.148;-1.786;2024-01-15T06:46:58;3.90;99.90
16976;DHT22;8604;48.148;-1.786;2024-01-15T06:49:29;3.90;99.90
16976;DHT22;8604;48.148;-1.786;2024-01-15T06:51:58;3.90;99.90
16976;DHT22;8604;48.148;-1.786;2024-01-15T06:54:26;3.90;99.90
16976;DHT22;8604;48.148;-1.786;2024-01-15T06:56:57;3.80;99.90
16976;DHT22;8604;48.148;-1.786;2024-01-15T06:59:27;3.80;99.90
16976;DHT22;8604;48.148;-1.786;2024-01-15T07:02:00;3.90;99.90
16976;DHT22;8604;48.148;-1.786;2024-01-15T07:04:30;3.90;99.90
16976;DHT22;8604;48.148;-1.786;2024-01-15T07:07:03;3.90;99.90
16976;DHT22;8604;48.148;-1.786;2024-01-15T07:09:50;3.90;99.90
16976;DHT22;8604;48.148;-1.786;2024-01-15T07:12:19;3.90;99.90
16976;DHT22;8604;48.148;-1.786;2024-01-15T07:14:48;3.90;99.90
16976;DHT22;8604;48.148;-1.786;2024-01-15T07:17:17;3.90;99.90
16976;DHT22;8604;48.148;-1.786;2024-01-15T07:19:46;3.90;99.90
16976;DHT22;8604;48.148;-1.786;2024-01-15T07:22:16;3.90;99.90
16976;DHT22;8604;48.148;-1.786;2024-01-15T07:24:46;4.00;99.90
16976;DHT22;8604;48.148;-1.786;2024-01-15T07:27:14;4.00;99.90
16976;DHT22;8604;48.148;-1.786;2024-01-15T07:29:43;4.00;99.90
16976;DHT22;8604;48.148;-1.786;2024-01-15T07:32:11;4.00;99.90
16976;DHT22;8604;48.148;-1.786;2024-01-15T07:34:41;4.00;99.90
16976;DHT22;8604;48.148;-1.786;2024-01-15T07:37:11;4.00;99.90
16976;DHT22;8604;48.148;-1.786;2024-01-15T07:39:49;4.00;99.90
16976;DHT22;8604;48.148;-1.786;2024-01-15T07:42:18;4.00;99.90
16976;DHT22;8604;48.148;-1.786;2024-01-15T07:44:46;4.10;99.90
16976;DHT22;8604;48.148;-1.786;2024-01-15T07:47:17;4.10;99.90
16976;DHT22;8604;48.148;-1.786;2024-01-15T07:49:47;4.10;99.90
16976;DHT22;8604;48.148;-1.786;2024-01-15T07:52:16;4.10;99.90
16976;DHT22;8604;48.148;-1.786;2024-01-15T07:54:44;4.10;99.90
16976;DHT22;8604;48.148;-1.786;2024-01-15T07:57:13;4.10;99.90
16976;DHT22;8604;48.148;-1.786;2024-01-15T07:59:42;4.00;99.90
16976;DHT22;8604;48.148;-1.786;2024-01-15T08:02:10;4.10;99.90
16976;DHT22;8604;48.148;-1.786;2024-01-15T08:04:38;4.00;99.90
16976;DHT22;8604;48.148;-1.786;2024-01-15T08:07:08;4.00;99.90
16976;DHT22;8604;48.148;-1.786;2024-01-15T08:09:37;4.00;99.90
16976;DHT22;8604;48.148;-1.786;2024-01-15T08:12:05;4.10;99.90
16976;DHT22;8604;48.148;-1.786;2024-01-15T08:14:34;4.10;99.90
16976;DHT22;8604;48.148;-1.786;2024-01-15T08:17:02;4.10;99.90
16976;DHT22;8604;48.148;-1.786;2024-01-15T08:19:31;4.10;99.90
16976;DHT22;8604;48.148;-1.786;2024-01-15T08:22:02;4.10;99.90
16976;DHT22;8604;48.148;-1.786;2024-01-15T08:24:58;4.10;99.90
16976;DHT22;8604;48.148;-1.786;2024-01-15T08:27:31;4.10;99.90
16976;DHT22;8604;48.148;-1.786;2024-01-15T08:30:00;4.10;99.90
16976;DHT22;8604;48.148;-1.786;2024-01-15T08:32:28;4.10;99.90
16976;DHT22;8604;48.148;-1.786;2024-01-15T08:34:57;4.10;99.90
16976;DHT22;8604;48.148;-1.786;2024-01-15T08:37:26;4.10;99.90
16976;DHT22;8604;48.148;-1.786;2024-01-15T08:39:55;4.10;99.90
16976;DHT22;8604;48.148;-1.786;2024-01-15T08:42:28;4.10;99.90
16976;DHT22;8604;48.148;-1.786;2024-01-15T08:45:05;4.10;99.90
16976;DHT22;8604;48.148;-1.786;2024-01-15T08:47:35;4.10;99.90
16976;DHT22;8604;48.148;-1.786;2024-01-15T08:50:05;4.10;99.90
16976;DHT22;8604;48.148;-1.786;2024-01-15T08:52:33;4.10;99.90
16976;DHT22;8604;48.148;-1.786;2024-01-15T08:55:02;4.10;99.90
16976;DHT22;8604;48.148;-1.786;2024-01-15T08:57:33;4.00;99.90
16976;DHT22;8604;48.148;-1.786;2024-01-15T09:00:02;4.00;99.90
16976;DHT22;8604;48.148;-1.786;2024-01-15T09:02:31;4.00;99.90
16976;DHT22;8604;48.148;-1.786;2024-01-15T09:05:00;4.00;99.90
16976;DHT22;8604;48.148;-1.786;2024-01-15T09:07:29;4.10;99.90
16976;DHT22;8604;48.148;-1.786;2024-01-15T09:09:57;4.10;99.90
16976;DHT22;8604;48.148;-1.786;2024-01-15T09:12:27;4.20;99.90
16976;DHT22;8604;48.148;-1.786;2024-01-15T09:14:58;4.20;99.90
16976;DHT22;8604;48.148;-1.786;2024-01-15T09:17:26;4.20;99.90
16976;DHT22;8604;48.148;-1.786;2024-01-15T09:19:55;4.30;99.90
16976;DHT22;8604;48.148;-1.786;2024-01-15T09:22:23;4.30;99.90
16976;DHT22;8604;48.148;-1.786;2024-01-15T09:24:52;4.40;99.90
16976;DHT22;8604;48.148;-1.786;2024-01-15T09:27:21;4.50;99.90
16976;DHT22;8604;48.148;-1.786;2024-01-15T09:29:49;4.60;99.90
16976;DHT22;8604;48.148;-1.786;2024-01-15T09:32:19;4.60;99.90
16976;DHT22;8604;48.148;-1.786;2024-01-15T09:34:47;4.70;99.90
16976;DHT22;8604;48.148;-1.786;2024-01-15T09:37:16;4.80;99.90
16976;DHT22;8604;48.148;-1.786;2024-01-15T09:40:05;4.90;99.90
16976;DHT22;8604;48.148;-1.786;2024-01-15T09:42:35;5.00;99.90
16976;DHT22;8604;48.148;-1.786;2024-01-15T09:45:05;5.10;99.90
16976;DHT22;8604;48.148;-1.786;2024-01-15T09:47:35;5.10;99.90
16976;DHT22;8604;48.148;-1.786;2024-01-15T09:50:06;5.10;99.90
16976;DHT22;8604;48.148;-1.786;2024-01-15T09:52:34;5.20;99.90
16976;DHT22;8604;48.148;-1.786;2024-01-15T09:55:04;5.20;99.90
16976;DHT22;8604;48.148;-1.786;2024-01-15T09:57:33;5.20;99.90
16976;DHT22;8604;48.148;-1.786;2024-01-15T10:00:02;5.30;99.90
16976;DHT22;8604;48.148;-1.786;2024-01-15T10:02:32;5.30;99.90
16976;DHT22;8604;48.148;-1.786;2024-01-15T10:05:03;5.40;99.90
16976;DHT22;8604;48.148;-1.786;2024-01-15T10:07:34;5.40;99.90
16976;DHT22;8604;48.148;-1.786;2024-01-15T10:10:03;5.50;99.90
16976;DHT22;8604;48.148;-1.786;2024-01-15T10:12:33;5.60;99.90
16976;DHT22;8604;48.148;-1.786;2024-01-15T10:15:02;5.60;99.90
16976;DHT22;8604;48.148;-1.786;2024-01-15T10:17:31;5.70;99.90
16976;DHT22;8604;48.148;-1.786;2024-01-15T10:19:59;5.80;99.90
16976;DHT22;8604;48.148;-1.786;2024-01-15T10:22:30;5.90;99.90
16976;DHT22;8604;48.148;-1.786;2024-01-15T10:24:59;6.00;99.90
16976;DHT22;8604;48.148;-1.786;2024-01-15T10:27:28;6.00;99.90
16976;DHT22;8604;48.148;-1.786;2024-01-15T10:29:59;6.10;99.90
16976;DHT22;8604;48.148;-1.786;2024-01-15T10:32:30;6.10;99.90
16976;DHT22;8604;48.148;-1.786;2024-01-15T10:34:58;6.10;99.90
16976;DHT22;8604;48.148;-1.786;2024-01-15T10:37:27;6.20;99.90
16976;DHT22;8604;48.148;-1.786;2024-01-15T10:39:57;6.20;99.90
16976;DHT22;8604;48.148;-1.786;2024-01-15T10:42:26;6.20;99.90
16976;DHT22;8604;48.148;-1.786;2024-01-15T10:44:55;6.20;99.90
16976;DHT22;8604;48.148;-1.786;2024-01-15T10:47:23;6.30;99.90
16976;DHT22;8604;48.148;-1.786;2024-01-15T10:49:52;6.30;99.90
16976;DHT22;8604;48.148;-1.786;2024-01-15T10:52:21;6.30;99.90
16976;DHT22;8604;48.148;-1.786;2024-01-15T10:54:50;6.30;99.90
16976;DHT22;8604;48.148;-1.786;2024-01-15T10:57:21;6.40;99.90
16976;DHT22;8604;48.148;-1.786;2024-01-15T10:59:50;6.40;99.90
16976;DHT22;8604;48.148;-1.786;2024-01-15T11:02:18;6.40;99.90
16976;DHT22;8604;48.148;-1.786;2024-01-15T11:04:47;6.50;99.90
16976;DHT22;8604;48.148;-1.786;2024-01-15T11:07:16;6.50;99.90
16976;DHT22;8604;48.148;-1.786;2024-01-15T11:09:45;6.60;99.90
16976;DHT22;8604;48.148;-1.786;2024-01-15T11:12:16;6.60;99.90
16976;DHT22;8604;48.148;-1.786;2024-01-15T11:14:48;6.70;99.90
16976;DHT22;8604;48.148;-1.786;2024-01-15T11:17:17;6.80;99.90
16976;DHT22;8604;48.148;-1.786;2024-01-15T11:19:48;6.80;99.90
16976;DHT22;8604;48.148;-1.786;2024-01-15T11:22:51;6.80;99.90
16976;DHT22;8604;48.148;-1.786;2024-01-15T11:25:19;6.80;99.90
16976;DHT22;8604;48.148;-1.786;2024-01-15T11:27:49;6.80;99.90
16976;DHT22;8604;48.148;-1.786;2024-01-15T11:30:24;6.80;99.90
16976;DHT22;8604;48.148;-1.786;2024-01-15T11:32:53;6.90;99.90
16976;DHT22;8604;48.148;-1.786;2024-01-15T11:35:22;6.90;99.90
16976;DHT22;8604;48.148;-1.786;2024-01-15T11:37:58;6.90;99.90
16976;DHT22;8604;48.148;-1.786;2024-01-15T11:40:39;7.00;99.90
16976;DHT22;8604;48.148;-1.786;2024-01-15T11:43:10;7.00;99.90
16976;DHT22;8604;48.148;-1.786;2024-01-15T11:45:41;7.00;99.90
16976;DHT22;8604;48.148;-1.786;2024-01-15T11:48:12;7.00;99.90
16976;DHT22;8604;48.148;-1.786;2024-01-15T11:50:41;7.00;99.90
16976;DHT22;8604;48.148;-1.786;2024-01-15T11:53:21;7.00;99.90
16976;DHT22;8604;48.148;-1.786;2024-01-15T11:55:52;7.00;99.90
16976;DHT22;8604;48.148;-1.786;2024-01-15T11:58:26;7.00;99.90
16976;DHT22;8604;48.148;-1.786;2024-01-15T12:00:56;7.00;99.90
16976;DHT22;8604;48.148;-1.786;2024-01-15T12:03:24;7.00;99.90
16976;DHT22;8604;48.148;-1.786;2024-01-15T12:05:53;6.70;99.90
16976;DHT22;8604;48.148;-1.786;2024-01-15T12:08:23;6.70;99.90
16976;DHT22;8604;48.148;-1.786;2024-01-15T12:10:52;6.70;99.90
16976;DHT22;8604;48.148;-1.786;2024-01-15T12:13:22;6.70;99.90
16976;DHT22;8604;48.148;-1.786;2024-01-15T12:15:50;6.70;99.90
16976;DHT22;8604;48.148;-1.786;2024-01-15T12:18:20;6.80;99.90
16976;DHT22;8604;48.148;-1.786;2024-01-15T12:20:54;6.80;99.90
16976;DHT22;8604;48.148;-1.786;2024-01-15T12:23:24;6.80;99.90
16976;DHT22;8604;48.148;-1.786;2024-01-15T12:25:52;6.80;99.90
16976;DHT22;8604;48.148;-1.786;2024-01-15T12:28:20;6.80;99.90
16976;DHT22;8604;48.148;-1.786;2024-01-15T12:30:49;6.80;99.90
16976;DHT22;8604;48.148;-1.786;2024-01-15T12:33:19;6.90;99.90
16976;DHT22;8604;48.148;-1.786;2024-01-15T12:35:49;6.90;99.90
16976;DHT22;8604;48.148;-1.786;2024-01-15T12:38:20;7.10;99.90
16976;DHT22;8604;48.148;-1.786;2024-01-15T12:40:49;7.20;99.90
16976;DHT22;8604;48.148;-1.786;2024-01-15T12:43:18;7.30;99.90
16976;DHT22;8604;48.148;-1.786;2024-01-15T12:45:47;7.40;99.90
16976;DHT22;8604;48.148;-1.786;2024-01-15T12:48:15;7.60;99.90
16976;DHT22;8604;48.148;-1.786;2024-01-15T12:50:47;7.50;99.90
16976;DHT22;8604;48.148;-1.786;2024-01-15T12:53:15;7.60;99.90
16976;DHT22;8604;48.148;-1.786;2024-01-15T12:55:44;7.60;99.90
16976;DHT22;8604;48.148;-1.786;2024-01-15T12:58:13;7.50;99.90
16976;DHT22;8604;48.148;-1.786;2024-01-15T13:00:45;7.50;99.90
16976;DHT22;8604;48.148;-1.786;2024-01-15T13:03:14;7.50;99.90
16976;DHT22;8604;48.148;-1.786;2024-01-15T13:05:43;7.40;99.90
16976;DHT22;8604;48.148;-1.786;2024-01-15T13:08:13;7.40;99.90
16976;DHT22;8604;48.148;-1.786;2024-01-15T13:10:42;7.40;99.90
16976;DHT22;8604;48.148;-1.786;2024-01-15T13:13:11;7.40;99.90
16976;DHT22;8604;48.148;-1.786;2024-01-15T13:15:41;7.40;99.90
16976;DHT22;8604;48.148;-1.786;2024-01-15T13:18:09;7.40;99.90
16976;DHT22;8604;48.148;-1.786;2024-01-15T13:20:38;7.50;99.90
16976;DHT22;8604;48.148;-1.786;2024-01-15T13:23:06;7.50;99.90
16976;DHT22;8604;48.148;-1.786;2024-01-15T13:25:36;7.50;99.90
16976;DHT22;8604;48.148;-1.786;2024-01-15T13:28:06;7.50;99.90
16976;DHT22;8604;48.148;-1.786;2024-01-15T13:30:35;7.50;99.90
16976;DHT22;8604;48.148;-1.786;2024-01-15T13:33:03;7.60;99.90
16976;DHT22;8604;48.148;-1.786;2024-01-15T13:36:00;7.50;99.90
16976;DHT22;8604;48.148;-1.786;2024-01-15T13:38:52;7.50;99.90
16976;DHT22;8604;48.148;-1.786;2024-01-15T13:41:22;7.60;99.90
16976;DHT22;8604;48.148;-1.786;2024-01-15T13:43:54;7.60;99.90
16976;DHT22;8604;48.148;-1.786;2024-01-15T13:46:24;7.50;99.90
16976;DHT22;8604;48.148;-1.786;2024-01-15T13:48:53;7.40;99.90
16976;DHT22;8604;48.148;-1.786;2024-01-15T13:51:22;7.40;99.90
16976;DHT22;8604;48.148;-1.786;2024-01-15T13:53:50;7.40;99.90
16976;DHT22;8604;48.148;-1.786;2024-01-15T13:56:20;7.40;99.90
16976;DHT22;8604;48.148;-1.786;2024-01-15T13:58:50;7.40;99.90
16976;DHT22;8604;48.148;-1.786;2024-01-15T14:01:20;7.40;99.90
16976;DHT22;8604;48.148;-1.786;2024-01-15T14:03:48;7.30;99.90
16976;DHT22;8604;48.148;-1.786;2024-01-15T14:06:16;7.30;99.90
16976;DHT22;8604;48.148;-1.786;2024-01-15T14:08:45;7.30;99.90
16976;DHT22;8604;48.148;-1.786;2024-01-15T14:11:13;7.20;99.90
16976;DHT22;8604;48.148;-1.786;2024-01-15T14:13:42;7.10;99.90
16976;DHT22;8604;48.148;-1.786;2024-01-15T14:16:11;7.10;99.90
16976;DHT22;8604;48.148;-1.786;2024-01-15T14:18:40;7.10;99.90
16976;DHT22;8604;48.148;-1.786;2024-01-15T14:21:09;7.10;99.90
16976;DHT22;8604;48.148;-1.786;2024-01-15T14:23:37;7.00;99.90
16976;DHT22;8604;48.148;-1.786;2024-01-15T14:26:06;7.00;99.90
16976;DHT22;8604;48.148;-1.786;2024-01-15T14:28:34;7.10;99.90
16976;DHT22;8604;48.148;-1.786;2024-01-15T14:31:03;7.10;99.90
16976;DHT22;8604;48.148;-1.786;2024-01-15T14:33:34;7.10;99.90
16976;DHT22;8604;48.148;-1.786;2024-01-15T14:36:06;7.10;99.90
16976;DHT22;8604;48.148;-1.786;2024-01-15T14:38:34;7.00;99.90
16976;DHT22;8604;48.148;-1.786;2024-01-15T14:41:03;7.00;99.90
16976;DHT22;8604;48.148;-1.786;2024-01-15T14:43:32;6.90;99.90
16976;DHT22;8604;48.148;-1.786;2024-01-15T14:46:01;6.80;99.90
16976;DHT22;8604;48.148;-1.786;2024-01-15T14:48:29;6.80;99.90
16976;DHT22;8604;48.148;-1.786;2024-01-15T14:50:59;6.70;99.90
16976;DHT22;8604;48.148;-1.786;2024-01-15T14:53:30;6.60;99.90
16976;DHT22;8604;48.148;-1.786;2024-01-15T14:55:58;6.60;99.90
16976;DHT22;8604;48.148;-1.786;2024-01-15T14:58:26;6.50;99.90
16976;DHT22;8604;48.148;-1.786;2024-01-15T15:00:55;6.50;99.90
16976;DHT22;8604;48.148;-1.786;2024-01-15T15:03:23;6.40;99.90
16976;DHT22;8604;48.148;-1.786;2024-01-15T15:05:55;6.40;99.90
16976;DHT22;8604;48.148;-1.786;2024-01-15T15:08:44;6.30;99.90
16976;DHT22;8604;48.148;-1.786;2024-01-15T15:11:12;6.30;99.90
16976;DHT22;8604;48.148;-1.786;2024-01-15T15:13:41;6.30;99.90
16976;DHT22;8604;48.148;-1.786;2024-01-15T15:16:12;6.30;99.90
16976;DHT22;8604;48.148;-1.786;2024-01-15T15:18:41;6.20;99.90
16976;DHT22;8604;48.148;-1.786;2024-01-15T15:21:15;6.20;99.90
16976;DHT22;8604;48.148;-1.786;2024-01-15T15:23:45;6.10;99.90
16976;DHT22;8604;48.148;-1.786;2024-01-15T15:26:14;6.10;99.90
16976;DHT22;8604;48.148;-1.786;2024-01-15T15:28:43;6.10;99.90
16976;DHT22;8604;48.148;-1.786;2024-01-15T15:31:11;6.00;99.90
16976;DHT22;8604;48.148;-1.786;2024-01-15T15:33:41;6.00;99.90
16976;DHT22;8604;48.148;-1.786;2024-01-15T15:36:10;6.00;99.90
16976;DHT22;8604;48.148;-1.786;2024-01-15T15:38:38;5.90;99.90
16976;DHT22;8604;48.148;-1.786;2024-01-15T15:41:08;5.90;99.90
16976;DHT22;8604;48.148;-1.786;2024-01-15T15:43:36;5.80;99.90
16976;DHT22;8604;48.148;-1.786;2024-01-15T15:46:05;5.80;99.90
16976;DHT22;8604;48.148;-1.786;2024-01-15T15:48:33;5.80;99.90
16976;DHT22;8604;48.148;-1.786;2024-01-15T15:51:02;5.70;99.90
16976;DHT22;8604;48.148;-1.786;2024-01-15T15:53:30;5.70;99.90
16976;DHT22;8604;48.148;-1.786;2024-01-15T15:55:59;5.70;99.90
16976;DHT22;8604;48.148;-1.786;2024-01-15T15:58:30;5.60;99.90
16976;DHT22;8604;48.148;-1.786;2024-01-15T16:00:58;5.60;99.90